createdAt,value
2022-09-12T00:00:26.352Z,53.43
2022-09-12T00:05:28.200Z,53.28
2022-09-12T00:10:29.689Z,53.24
2022-09-12T00:15:31.198Z,53.33
2022-09-12T00:20:32.731Z,53.75
2022-09-12T00:25:34.193Z,53.90
2022-09-12T00:30:40.528Z,53.66
2022-09-12T00:35:52.815Z,53.52
2022-09-12T00:40:54.537Z,53.74
2022-09-12T00:46:03.654Z,54.05
2022-09-12T00:51:05.906Z,54.19
2022-09-12T00:56:07.888Z,54.17
2022-09-12T01:01:09.500Z,54.07
2022-09-12T01:06:20.479Z,53.85
2022-09-12T01:11:22.993Z,54.16
2022-09-12T01:16:24.558Z,54.17
2022-09-12T01:21:55.983Z,54.05
2022-09-12T01:27:14.688Z,53.83
2022-09-12T01:32:40.631Z,54.20
2022-09-12T01:38:25.441Z,54.02
2022-09-12T01:43:57.808Z,53.77
2022-09-12T01:49:11.523Z,53.77
2022-09-12T01:54:20.794Z,53.59
2022-09-12T01:59:30.775Z,53.55
2022-09-12T02:04:40.129Z,53.62
2022-09-12T02:09:52.806Z,53.18
2022-09-12T02:20:17.753Z,52.94
2022-09-12T02:25:36.211Z,52.82
2022-09-12T02:30:50.124Z,53.03
2022-09-12T02:36:06.669Z,53.18
2022-09-12T02:41:08.840Z,53.32
2022-09-12T02:46:16.734Z,53.39
2022-09-12T02:51:22.940Z,53.34
2022-09-12T02:56:28.628Z,53.62
2022-09-12T03:01:54.941Z,53.50
2022-09-12T03:07:20.727Z,53.46
2022-09-12T03:12:34.075Z,53.57
2022-09-12T03:18:04.446Z,53.40
2022-09-12T03:23:24.495Z,53.70
2022-09-12T03:28:26.766Z,53.98
2022-09-12T03:33:28.363Z,54.10
2022-09-12T03:38:29.844Z,54.05
2022-09-12T03:43:31.320Z,54.05
2022-09-12T03:48:32.883Z,54.08
2022-09-12T03:53:35.048Z,54.46
2022-09-12T03:58:37.441Z,54.21
2022-09-12T04:03:43.323Z,54.22
2022-09-12T04:08:47.757Z,54.39
2022-09-12T04:13:49.453Z,54.16
2022-09-12T04:18:51.390Z,54.07
2022-09-12T04:23:52.891Z,53.80
2022-09-12T04:28:55.011Z,53.13
2022-09-12T04:33:58.759Z,52.60
2022-09-12T04:39:01.172Z,52.20
2022-09-12T04:44:10.083Z,52.36
2022-09-12T04:49:12.476Z,52.15
2022-09-12T04:54:17.526Z,52.35
2022-09-12T04:59:20.694Z,52.65
2022-09-12T05:04:22.175Z,53.15
2022-09-12T05:09:25.214Z,53.89
2022-09-12T05:14:26.729Z,53.98
2022-09-12T05:19:28.969Z,54.21
2022-09-12T05:24:30.474Z,54.57
2022-09-12T05:29:31.955Z,54.74
2022-09-12T05:34:33.520Z,55.04
2022-09-12T05:39:35.027Z,55.30
2022-09-12T05:44:36.966Z,55.27
2022-09-12T05:49:38.490Z,55.33
2022-09-12T05:54:41.165Z,55.12
2022-09-12T05:59:43.283Z,54.66
2022-09-12T06:04:45.768Z,54.36
2022-09-12T06:09:47.243Z,54.37
2022-09-12T06:14:49.286Z,55.06
2022-09-12T06:19:51.058Z,55.32
2022-09-12T06:24:57.306Z,55.47
2022-09-12T06:29:59.633Z,55.66
2022-09-12T06:35:01.131Z,55.69
2022-09-12T06:40:03.081Z,55.94
2022-09-12T06:45:04.850Z,55.95
2022-09-12T06:50:06.943Z,56.18
2022-09-12T06:55:08.622Z,56.42
2022-09-12T07:00:11.574Z,56.31
2022-09-12T07:05:13.866Z,56.49
2022-09-12T07:10:19.113Z,56.56
2022-09-12T07:15:23.700Z,56.89
2022-09-12T07:20:25.219Z,56.94
2022-09-12T07:25:27.311Z,57.13
2022-09-12T07:30:28.836Z,57.08
2022-09-12T07:35:33.408Z,56.87
2022-09-12T07:40:34.892Z,56.80
2022-09-12T07:45:36.383Z,56.85
2022-09-12T07:50:40.033Z,56.78
2022-09-12T07:55:44.690Z,56.85
2022-09-12T08:00:46.163Z,56.78
2022-09-12T08:05:47.703Z,56.87
2022-09-12T08:10:49.220Z,56.75
2022-09-12T08:15:50.711Z,56.81
2022-09-12T08:21:07.027Z,56.92
2022-09-12T08:26:10.362Z,56.58
2022-09-12T08:31:14.710Z,56.61
2022-09-12T08:36:19.631Z,56.91
2022-09-12T08:41:45.189Z,56.80
2022-09-12T08:46:49.592Z,56.88
2022-09-12T08:51:52.328Z,56.88
2022-09-12T08:57:01.991Z,56.92
2022-09-12T09:02:17.195Z,56.92
2022-09-12T09:07:30.588Z,56.91
2022-09-12T09:12:45.172Z,56.56
2022-09-12T09:17:50.935Z,56.64
2022-09-12T09:23:17.375Z,56.50
2022-09-12T09:28:56.129Z,56.42
2022-09-12T09:33:57.610Z,55.96
2022-09-12T09:39:05.987Z,55.77
2022-09-12T09:49:12.662Z,55.71
2022-09-12T09:54:33.853Z,55.58
2022-09-12T09:59:35.397Z,55.46
2022-09-12T10:04:41.813Z,55.28
2022-09-12T10:10:05.564Z,55.02
2022-09-12T10:15:26.731Z,54.94
2022-09-12T10:20:39.031Z,54.78
2022-09-12T10:25:41.026Z,53.88
2022-09-12T10:30:52.894Z,53.85
2022-09-12T10:35:55.821Z,53.22
2022-09-12T10:41:00.449Z,52.95
2022-09-12T10:46:17.325Z,52.40
2022-09-12T10:51:24.846Z,51.39
2022-09-12T10:56:33.632Z,52.05
2022-09-12T11:01:41.076Z,51.29
2022-09-12T11:06:58.408Z,50.76
2022-09-12T11:12:20.716Z,50.96
2022-09-12T11:17:42.939Z,51.54
2022-09-12T11:22:53.483Z,50.88
2022-09-12T11:28:12.536Z,50.13
2022-09-12T11:33:33.015Z,50.03
2022-09-12T11:38:50.707Z,49.56
2022-09-12T11:43:56.786Z,49.28
2022-09-12T11:49:13.599Z,47.95
2022-09-12T11:54:44.752Z,47.97
2022-09-12T11:59:52.980Z,47.51
2022-09-12T12:05:09.359Z,47.97
2022-09-12T12:10:38.557Z,48.23
2022-09-12T12:15:40.214Z,47.49
2022-09-12T12:20:41.967Z,47.38
2022-09-12T12:25:56.599Z,46.62
2022-09-12T12:31:00.093Z,46.76
2022-09-12T12:36:07.074Z,45.96
2022-09-12T12:41:17.533Z,45.72
2022-09-12T12:46:22.558Z,45.41
2022-09-12T12:51:36.209Z,45.98
2022-09-12T12:56:40.736Z,45.76
2022-09-12T13:01:55.230Z,45.43
2022-09-12T13:07:08.409Z,45.39
2022-09-12T13:12:35.763Z,45.33
2022-09-12T13:17:44.770Z,44.85
2022-09-12T13:22:48.884Z,44.45
2022-09-12T13:28:10.611Z,44.59
2022-09-12T13:33:20.899Z,42.83
2022-09-12T13:38:37.762Z,43.51
2022-09-12T13:43:42.488Z,43.15
2022-09-12T13:48:44.442Z,43.01
2022-09-12T13:53:47.927Z,42.86
2022-09-12T13:59:00.841Z,43.03
2022-09-12T14:04:33.676Z,42.90
2022-09-12T14:09:39.719Z,42.28
2022-09-12T14:14:43.845Z,42.28
2022-09-12T14:19:46.568Z,41.88
2022-09-12T14:24:50.468Z,41.81
2022-09-12T14:30:20.303Z,41.92
2022-09-12T14:35:22.064Z,42.03
2022-09-12T14:40:24.128Z,41.74
2022-09-12T14:45:30.268Z,41.86
2022-09-12T14:50:35.483Z,41.94
2022-09-12T14:55:44.847Z,41.93
2022-09-12T15:00:58.053Z,41.77
2022-09-12T15:06:02.816Z,41.48
2022-09-12T15:11:06.368Z,41.77
2022-09-12T15:16:11.102Z,42.06
2022-09-12T15:21:20.237Z,41.58
2022-09-12T15:26:24.013Z,41.31
2022-09-12T15:31:32.634Z,41.36
2022-09-12T15:36:34.167Z,41.21
2022-09-12T15:41:37.953Z,41.38
2022-09-12T15:46:39.611Z,41.32
2022-09-12T15:51:41.242Z,41.51
2022-09-12T15:56:43.875Z,41.43
2022-09-12T16:01:45.418Z,41.35
2022-09-12T16:06:47.015Z,41.64
2022-09-12T16:11:48.610Z,41.40
2022-09-12T16:16:54.385Z,41.24
2022-09-12T16:21:55.895Z,41.38
2022-09-12T16:27:01.164Z,40.63
2022-09-12T16:32:03.637Z,40.44
2022-09-12T16:37:05.604Z,40.47
2022-09-12T16:42:07.077Z,40.13
2022-09-12T16:47:08.545Z,39.72
2022-09-12T16:52:10.854Z,39.59
2022-09-12T16:57:12.444Z,39.43
2022-09-12T17:02:14.739Z,39.28
2022-09-12T17:07:16.384Z,38.72
2022-09-12T17:12:17.846Z,39.05
2022-09-12T17:17:19.337Z,38.94
2022-09-12T17:22:20.892Z,39.07
2022-09-12T17:27:22.416Z,39.40
2022-09-12T17:32:23.947Z,39.44
2022-09-12T17:37:25.789Z,39.80
2022-09-12T17:42:27.226Z,39.58
2022-09-12T17:47:28.728Z,39.66
2022-09-12T17:52:31.441Z,40.01
2022-09-12T17:57:32.906Z,40.24
2022-09-12T18:02:35.027Z,40.41
2022-09-12T18:07:38.930Z,40.57
2022-09-12T18:12:43.071Z,40.87
2022-09-12T18:17:44.537Z,41.09
2022-09-12T18:22:49.282Z,41.25
2022-09-12T18:27:50.827Z,41.74
2022-09-12T18:32:52.344Z,42.10
2022-09-12T18:37:53.855Z,42.77
2022-09-12T18:42:55.344Z,43.25
2022-09-12T18:47:57.866Z,43.65
2022-09-12T18:52:59.997Z,43.57
2022-09-12T18:58:01.628Z,44.06
2022-09-12T19:03:03.135Z,44.11
2022-09-12T19:08:04.846Z,44.33
2022-09-12T19:13:06.475Z,44.16
2022-09-12T19:18:09.269Z,44.10
2022-09-12T19:23:10.740Z,44.29
2022-09-12T19:28:12.393Z,44.32
2022-09-12T19:33:13.969Z,44.23
2022-09-12T19:38:16.139Z,44.26
2022-09-12T19:43:17.599Z,44.48
2022-09-12T19:48:19.758Z,44.54
2022-09-12T19:53:21.208Z,44.23
2022-09-12T19:58:22.685Z,44.63
2022-09-12T20:03:24.281Z,44.33
2022-09-12T20:08:25.749Z,44.67
2022-09-12T20:13:27.987Z,44.90
2022-09-12T20:18:29.468Z,45.09
2022-09-12T20:23:30.963Z,44.97
2022-09-12T20:28:32.560Z,45.28
2022-09-12T20:33:34.456Z,45.39
2022-09-12T20:38:36.751Z,45.61
2022-09-12T20:43:38.651Z,45.76
2022-09-12T20:48:40.211Z,45.84
2022-09-12T20:53:41.675Z,45.83
2022-09-12T20:58:44.644Z,46.01
2022-09-12T21:03:47.082Z,46.13
2022-09-12T21:08:49.286Z,45.93
2022-09-12T21:13:52.701Z,46.11
2022-09-12T21:18:57.336Z,46.33
2022-09-12T21:23:59.821Z,46.10
2022-09-12T21:29:01.446Z,46.62
2022-09-12T21:34:03.098Z,46.20
2022-09-12T21:39:05.144Z,46.33
2022-09-12T21:44:07.380Z,46.51
2022-09-12T21:49:08.830Z,46.83
2022-09-12T21:54:10.295Z,46.57
2022-09-12T21:59:12.805Z,46.58
2022-09-12T22:04:14.386Z,46.85
2022-09-12T22:09:16.903Z,46.83
2022-09-12T22:14:18.553Z,47.03
2022-09-12T22:19:20.394Z,46.94
2022-09-12T22:24:27.596Z,47.14
2022-09-12T22:29:29.111Z,47.06
2022-09-12T22:34:31.150Z,46.96
2022-09-12T22:39:32.736Z,47.23
2022-09-12T22:44:34.238Z,47.25
2022-09-12T22:49:35.724Z,47.10
2022-09-12T22:54:37.665Z,47.12
2022-09-12T22:59:39.612Z,47.12
2022-09-12T23:04:41.113Z,47.23
2022-09-12T23:09:42.662Z,47.49
2022-09-12T23:14:44.174Z,47.43
2022-09-12T23:19:45.658Z,47.38
2022-09-12T23:24:47.290Z,47.63
2022-09-12T23:29:52.271Z,47.84
2022-09-12T23:34:53.791Z,47.81
2022-09-12T23:39:55.645Z,47.71
2022-09-12T23:44:57.340Z,47.46
2022-09-12T23:49:58.873Z,47.82
2022-09-12T23:55:00.349Z,47.96
